Aviation Digital Data Service (ADDS)

Output produced by METARs form (1149 UTC 24 May 2022)
found at http://www.aviationweather.gov/metar/data/
 
VTUK 241100Z 20008KT 9999 FEW030 32/23 Q1006 NOSIG
VTUK 241000Z 22008KT 170V260 9999 FEW030 33/23 Q1006 NOSIG
VTUK 240900Z 22010KT 190V250 9999 FEW030 33/23 Q1005 NOSIG
VTUK 240800Z 21011KT 180V250 9999 SCT030 33/22 Q1005 NOSIG
VTUK 240700Z 19012KT 9999 BKN030 33/22 Q1007 NOSIG
VTUK 240600Z 21010KT 9999 BKN030 32/23 Q1008 NOSIG
VTUK 240500Z 19008KT 140V230 9999 SCT030 32/23 Q1008 NOSIG
VTUK 240400Z 22007KT 170V260 9999 SCT030 31/23 Q1008 NOSIG
VTUK 240300Z 23007KT 180V280 9999 FEW030 SCT100 31/23 Q1008 NOSIG
VTUK 240200Z 21008KT 180V240 9999 FEW030 30/23 Q1008 NOSIG
VTUK 240100Z 21006KT 180V250 9999 FEW030 SCT100 28/22 Q1007 NOSIG
VTUK 240000Z 21007KT 180V240 9999 FEW030 BKN100 27/22 Q1007 NOSIG
VTUK 232300Z 21007KT 9999 FEW030 BKN100 26/22 Q1006 NOSIG
VTUK 232200Z 20007KT 9000 SCT030 BKN100 26/22 Q1005 NOSIG
VTUK 232100Z 20006KT 9000 SCT030 SCT100 27/23 Q1005 NOSIG
VTUK 232000Z 20006KT 9000 SCT030 SCT100 27/24 Q1005 NOSIG
VTUK 231900Z 20006KT 9000 SCT030 SCT100 27/24 Q1005 NOSIG
VTUK 231800Z 20004KT 9000 SCT030 SCT100 28/24 Q1005 NOSIG
VTUK 231700Z 18004KT 9000 SCT030 SCT100 28/25 Q1006 NOSIG
VTUK 231600Z VRB01KT 9000 SCT030 SCT100 28/24 Q1006 NOSIG
VTUK 231500Z VRB02KT 9000 SCT030 SCT080 29/25 Q1006 NOSIG
VTUK 231400Z 20003KT 160V230 9000 SCT030 SCT080 29/25 Q1005 NOSIG
VTUK 231300Z 17003KT 130V200 9000 SCT030 BKN080 30/25 Q1004 NOSIG
VTUK 231200Z 19004KT 150V230 9000 SCT030 BKN080 30/24 Q1003 NOSIG
VTUK 231100Z 18005KT 130V210 9999 SCT030 BKN080 31/24 Q1002 NOSIG
TAF VTUK 241100Z 2412/2512 21008KT 9000 FEW030 SCT100 
     TEMPO 2412/2420 VRB15KT 4000 TSRA FEW018CB BKN020 BKN080 
     TEMPO 2506/2512 VRB15KT 4000 TSRA FEW018CB BKN020 BKN080